createdAt,value
2022-08-08T00:00:53.666Z,18.73
2022-08-08T00:03:32.643Z,18.71
2022-08-08T00:06:14.399Z,18.69
2022-08-08T00:09:03.392Z,18.64
2022-08-08T00:12:07.266Z,18.62
2022-08-08T00:15:00.566Z,18.52
2022-08-08T00:18:01.687Z,18.45
2022-08-08T00:20:51.120Z,18.42
2022-08-08T00:23:43.000Z,18.41
2022-08-08T00:26:36.745Z,18.45
2022-08-08T00:29:45.282Z,18.46
2022-08-08T00:32:36.078Z,18.44
2022-08-08T00:35:18.448Z,18.40
2022-08-08T00:38:32.040Z,18.38
2022-08-08T00:41:54.533Z,18.38
2022-08-08T00:44:44.106Z,18.37
2022-08-08T00:48:05.261Z,18.38
2022-08-08T00:50:52.462Z,18.37
2022-08-08T00:53:56.817Z,18.33
2022-08-08T00:57:03.955Z,18.33
2022-08-08T01:00:11.076Z,18.33
2022-08-08T01:03:58.877Z,18.35
2022-08-08T01:06:16.266Z,18.32
2022-08-08T01:08:52.974Z,18.34
2022-08-08T01:11:51.997Z,18.31
2022-08-08T01:14:57.427Z,18.31
2022-08-08T01:17:55.584Z,18.30
2022-08-08T01:20:56.222Z,18.32
2022-08-08T01:24:05.581Z,18.26
2022-08-08T01:26:36.008Z,18.27
2022-08-08T01:29:35.501Z,18.26
2022-08-08T01:32:45.376Z,18.23
2022-08-08T01:35:30.219Z,18.18
2022-08-08T01:38:26.211Z,18.14
2022-08-08T01:41:22.910Z,18.07
2022-08-08T01:44:01.970Z,18.05
2022-08-08T01:46:56.203Z,18.00
2022-08-08T01:49:40.874Z,17.98
2022-08-08T01:54:05.838Z,17.92
2022-08-08T01:55:26.512Z,17.90
2022-08-08T01:58:16.858Z,17.87
2022-08-08T02:01:17.220Z,17.87
2022-08-08T02:04:23.962Z,17.84
2022-08-08T02:07:14.393Z,17.81
2022-08-08T02:10:01.498Z,17.78
2022-08-08T02:13:09.100Z,17.75
2022-08-08T02:16:08.066Z,17.75
2022-08-08T02:18:59.958Z,17.75
2022-08-08T02:22:00.292Z,17.78
2022-08-08T02:24:32.054Z,17.74
2022-08-08T02:27:06.161Z,17.72
2022-08-08T02:29:54.606Z,17.68
2022-08-08T02:32:57.982Z,17.63
2022-08-08T02:36:05.151Z,17.56
2022-08-08T02:38:49.212Z,17.54
2022-08-08T02:42:03.637Z,17.50
2022-08-08T02:44:57.996Z,17.45
2022-08-08T02:47:54.938Z,17.43
2022-08-08T02:50:39.915Z,17.40
2022-08-08T02:53:24.062Z,17.40
2022-08-08T02:56:10.603Z,17.36
2022-08-08T02:59:26.118Z,17.36
2022-08-08T03:02:32.207Z,17.33
2022-08-08T03:05:44.906Z,17.29
2022-08-08T03:08:44.093Z,17.29
2022-08-08T03:11:59.836Z,17.23
2022-08-08T03:15:59.454Z,17.16
2022-08-08T03:17:59.779Z,17.16
2022-08-08T03:20:46.734Z,17.12
2022-08-08T03:23:17.672Z,17.11
2022-08-08T03:25:46.696Z,17.04
2022-08-08T03:28:32.976Z,17.08
2022-08-08T03:31:22.652Z,17.06
2022-08-08T03:33:58.886Z,17.06
2022-08-08T03:36:33.730Z,16.99
2022-08-08T03:39:15.116Z,17.03
2022-08-08T03:42:27.262Z,16.99
2022-08-08T03:44:34.017Z,16.97
2022-08-08T03:47:17.614Z,16.99
2022-08-08T03:50:00.993Z,17.02
2022-08-08T03:52:36.190Z,16.98
2022-08-08T03:55:55.995Z,17.00
2022-08-08T03:58:35.586Z,17.00
2022-08-08T04:01:20.699Z,17.00
2022-08-08T04:03:59.568Z,17.00
2022-08-08T04:06:29.953Z,17.00
2022-08-08T04:09:10.206Z,17.02
2022-08-08T04:11:57.726Z,17.02
2022-08-08T04:14:35.768Z,16.98
2022-08-08T04:17:04.679Z,16.95
2022-08-08T04:19:43.562Z,16.94
2022-08-08T04:22:11.286Z,16.97
2022-08-08T04:24:41.476Z,16.93
2022-08-08T04:27:19.449Z,16.93
2022-08-08T04:30:01.094Z,16.88
2022-08-08T04:32:46.845Z,16.88
2022-08-08T04:35:18.188Z,16.87
2022-08-08T04:37:55.594Z,16.85
2022-08-08T04:40:25.198Z,16.87
2022-08-08T04:42:56.827Z,16.86
2022-08-08T04:45:28.471Z,16.88
2022-08-08T04:48:01.447Z,16.88
2022-08-08T04:50:37.539Z,16.88
2022-08-08T04:53:52.475Z,16.85
2022-08-08T04:55:55.970Z,16.85
2022-08-08T04:58:24.733Z,16.88
2022-08-08T05:00:54.660Z,16.89
2022-08-08T05:04:09.189Z,16.88
2022-08-08T05:06:25.887Z,16.92
2022-08-08T05:09:02.746Z,16.94
2022-08-08T05:11:38.790Z,16.96
2022-08-08T05:14:07.052Z,16.97
2022-08-08T05:16:51.870Z,17.02
2022-08-08T05:20:09.391Z,17.07
2022-08-08T05:22:11.143Z,17.11
2022-08-08T05:24:41.718Z,17.15
2022-08-08T05:27:16.834Z,17.18
2022-08-08T05:29:51.854Z,17.23
2022-08-08T05:32:24.718Z,17.31
2022-08-08T05:34:55.447Z,17.34
2022-08-08T05:37:39.221Z,17.40
2022-08-08T05:40:14.725Z,17.45
2022-08-08T05:42:45.986Z,17.52
2022-08-08T05:45:25.351Z,17.59
2022-08-08T05:48:08.220Z,17.63
2022-08-08T05:50:39.335Z,17.67
2022-08-08T05:53:53.794Z,17.73
2022-08-08T05:56:09.479Z,17.80
2022-08-08T05:58:57.542Z,17.83
2022-08-08T06:01:56.358Z,17.92
2022-08-08T06:04:29.291Z,18.06
2022-08-08T06:07:02.075Z,18.19
2022-08-08T06:09:59.209Z,18.33
2022-08-08T06:12:30.463Z,18.44
2022-08-08T06:15:06.290Z,18.65
2022-08-08T06:18:18.234Z,18.74
2022-08-08T06:20:26.608Z,18.83
2022-08-08T06:23:00.087Z,18.91
2022-08-08T06:25:33.155Z,18.98
2022-08-08T06:28:29.230Z,19.01
2022-08-08T06:30:58.832Z,19.09
2022-08-08T06:33:37.346Z,19.18
2022-08-08T06:36:53.937Z,19.27
2022-08-08T06:39:22.114Z,19.34
2022-08-08T06:41:57.256Z,19.44
2022-08-08T06:44:25.830Z,19.54
2022-08-08T06:47:05.368Z,19.62
2022-08-08T06:49:54.818Z,19.67
2022-08-08T06:52:27.640Z,19.75
2022-08-08T06:54:56.566Z,19.80
2022-08-08T06:57:44.089Z,19.86
2022-08-08T07:00:13.505Z,19.95
2022-08-08T07:02:45.968Z,20.06
2022-08-08T07:05:20.648Z,20.19
2022-08-08T07:08:01.706Z,20.27
2022-08-08T07:10:47.694Z,20.33
2022-08-08T07:13:18.800Z,20.44
2022-08-08T07:16:05.319Z,20.47
2022-08-08T07:18:59.349Z,20.53
2022-08-08T07:21:31.166Z,20.66
2022-08-08T07:24:03.991Z,20.78
2022-08-08T07:26:35.248Z,20.71
2022-08-08T07:29:05.433Z,20.65
2022-08-08T07:31:35.516Z,20.71
2022-08-08T07:34:09.115Z,20.78
2022-08-08T07:36:48.087Z,20.94
2022-08-08T07:39:29.606Z,20.96
2022-08-08T07:42:12.680Z,21.10
2022-08-08T07:44:43.727Z,21.28
2022-08-08T07:47:16.163Z,21.47
2022-08-08T07:49:50.648Z,21.58
2022-08-08T07:52:26.970Z,21.71
2022-08-08T07:55:00.108Z,21.71
2022-08-08T07:57:37.043Z,21.85
2022-08-08T08:00:23.515Z,21.94
2022-08-08T08:03:13.837Z,22.13
2022-08-08T08:05:53.209Z,22.23
2022-08-08T08:08:25.881Z,22.34
2022-08-08T08:10:57.448Z,22.46
2022-08-08T08:14:08.354Z,22.56
2022-08-08T08:16:38.114Z,22.70
2022-08-08T08:19:07.957Z,22.87
2022-08-08T08:21:58.254Z,22.92
2022-08-08T08:24:36.544Z,22.98
2022-08-08T08:27:08.424Z,23.09
2022-08-08T08:29:37.356Z,23.18
2022-08-08T08:32:11.491Z,23.29
2022-08-08T08:34:43.462Z,23.41
2022-08-08T08:37:20.718Z,23.55
2022-08-08T08:40:00.919Z,23.73
2022-08-08T08:42:41.106Z,23.88
2022-08-08T08:45:22.613Z,24.08
2022-08-08T08:47:58.158Z,24.17
2022-08-08T08:50:33.028Z,24.32
2022-08-08T08:53:54.890Z,24.50
2022-08-08T08:56:03.062Z,24.60
2022-08-08T08:58:49.861Z,24.76
2022-08-08T09:01:22.003Z,24.87
2022-08-08T09:03:56.607Z,25.00
2022-08-08T09:06:33.517Z,25.14
2022-08-08T09:09:26.309Z,25.36
2022-08-08T09:12:07.701Z,25.51
2022-08-08T09:14:42.725Z,25.62
2022-08-08T09:17:18.965Z,25.74
2022-08-08T09:22:02.958Z,25.83
2022-08-08T09:22:39.486Z,25.89
2022-08-08T09:25:12.241Z,25.93
2022-08-08T09:27:58.057Z,25.98
2022-08-08T09:30:27.219Z,26.11
2022-08-08T09:33:11.984Z,26.15
2022-08-08T09:35:50.174Z,26.31
2022-08-08T09:38:32.876Z,26.40
2022-08-08T09:41:09.007Z,26.47
2022-08-08T09:44:06.387Z,26.52
2022-08-08T09:46:38.719Z,26.73
2022-08-08T09:49:40.870Z,26.84
2022-08-08T09:52:07.053Z,26.91
2022-08-08T09:54:56.353Z,26.98
2022-08-08T09:57:45.713Z,27.05
2022-08-08T10:00:49.817Z,27.16
2022-08-08T10:03:13.249Z,27.21
2022-08-08T10:05:46.745Z,27.29
2022-08-08T10:08:16.973Z,27.40
2022-08-08T10:10:51.293Z,27.50
2022-08-08T10:13:32.265Z,27.60
2022-08-08T10:16:06.927Z,27.52
2022-08-08T10:18:42.023Z,27.59
2022-08-08T10:21:32.721Z,27.70
2022-08-08T10:24:12.234Z,27.72
2022-08-08T10:27:06.825Z,27.84
2022-08-08T10:29:58.701Z,27.92
2022-08-08T10:32:37.451Z,27.99
2022-08-08T10:36:08.313Z,28.06
2022-08-08T10:38:20.347Z,28.20
2022-08-08T10:40:51.923Z,28.22
2022-08-08T10:43:26.078Z,28.26
2022-08-08T10:46:03.653Z,28.29
2022-08-08T10:48:57.267Z,28.36
2022-08-08T10:51:51.287Z,28.55
2022-08-08T10:54:26.895Z,28.53
2022-08-08T10:57:03.943Z,28.58
2022-08-08T10:59:39.892Z,28.55
2022-08-08T11:02:11.775Z,28.60
2022-08-08T11:04:54.140Z,28.66
2022-08-08T11:08:30.258Z,28.69
2022-08-08T11:10:28.485Z,28.77
2022-08-08T11:16:00.490Z,28.89
2022-08-08T11:18:32.445Z,28.95
2022-08-08T11:21:09.867Z,29.01
2022-08-08T11:23:40.528Z,29.21
2022-08-08T11:26:28.005Z,29.30
2022-08-08T11:29:02.924Z,29.32
2022-08-08T11:31:48.447Z,29.44
2022-08-08T11:34:24.338Z,29.48
2022-08-08T11:37:15.099Z,29.58
2022-08-08T11:39:43.456Z,29.60
2022-08-08T11:42:27.112Z,29.60
2022-08-08T11:45:01.729Z,29.62
2022-08-08T11:47:39.771Z,29.77
2022-08-08T11:50:23.549Z,29.88
2022-08-08T11:53:05.734Z,29.85
2022-08-08T11:55:37.287Z,29.81
2022-08-08T11:58:15.550Z,29.93
2022-08-08T12:00:56.320Z,29.95
2022-08-08T12:03:30.657Z,30.04
2022-08-08T12:06:01.412Z,29.99
2022-08-08T12:08:38.067Z,30.02
2022-08-08T12:11:11.020Z,30.08
2022-08-08T12:14:03.531Z,30.18
2022-08-08T12:16:34.358Z,30.20
2022-08-08T12:19:15.485Z,30.15
2022-08-08T12:21:59.353Z,30.13
2022-08-08T12:24:32.120Z,30.12
2022-08-08T12:27:08.718Z,30.08
2022-08-08T12:29:42.157Z,30.13
2022-08-08T12:32:20.255Z,30.11
2022-08-08T12:35:04.209Z,30.16
2022-08-08T12:37:41.030Z,30.26
2022-08-08T12:40:22.357Z,30.37
2022-08-08T12:42:56.697Z,30.43
2022-08-08T12:45:58.351Z,30.51
2022-08-08T12:48:35.597Z,30.43
2022-08-08T12:51:07.825Z,30.53
2022-08-08T12:54:01.095Z,30.49
2022-08-08T12:56:40.038Z,30.50
2022-08-08T12:59:19.163Z,30.64
2022-08-08T13:02:01.678Z,30.66
2022-08-08T13:04:31.139Z,30.55
2022-08-08T13:07:16.749Z,30.57
2022-08-08T13:10:04.854Z,30.51
2022-08-08T13:12:45.970Z,30.58
2022-08-08T13:15:19.863Z,30.49
2022-08-08T13:18:07.960Z,30.53
2022-08-08T13:20:50.853Z,30.61
2022-08-08T13:23:41.806Z,30.59
2022-08-08T13:26:15.623Z,30.67
2022-08-08T13:28:45.815Z,30.73
2022-08-08T13:31:18.893Z,30.76
2022-08-08T13:33:54.465Z,30.73
2022-08-08T13:36:28.154Z,30.77
2022-08-08T13:39:00.207Z,30.82
2022-08-08T13:41:37.838Z,30.85
2022-08-08T13:44:19.420Z,30.87
2022-08-08T13:46:56.852Z,30.87
2022-08-08T13:50:35.442Z,30.76
2022-08-08T13:52:37.634Z,30.83
2022-08-08T13:55:13.935Z,30.76
2022-08-08T13:58:08.272Z,30.67
2022-08-08T14:00:45.501Z,30.69
2022-08-08T14:03:52.938Z,30.64
2022-08-08T14:06:32.866Z,30.67
2022-08-08T14:09:24.259Z,30.64
2022-08-08T14:11:58.381Z,30.62
2022-08-08T14:14:53.923Z,30.54
2022-08-08T14:17:57.877Z,30.43
2022-08-08T14:20:57.284Z,30.19
2022-08-08T14:23:21.393Z,29.95
2022-08-08T14:26:12.787Z,29.97
2022-08-08T14:28:47.807Z,29.87
2022-08-08T14:31:20.270Z,29.77
2022-08-08T14:33:56.553Z,29.59
2022-08-08T14:36:37.879Z,29.41
2022-08-08T14:39:11.773Z,29.31
2022-08-08T14:41:54.475Z,29.14
2022-08-08T14:44:35.248Z,28.96
2022-08-08T14:47:16.728Z,28.86
2022-08-08T14:50:10.224Z,28.80
2022-08-08T14:52:58.376Z,28.62
2022-08-08T14:55:41.065Z,28.49
2022-08-08T14:58:19.790Z,28.41
2022-08-08T15:00:54.860Z,28.30
2022-08-08T15:03:30.677Z,28.19
2022-08-08T15:06:16.581Z,28.12
2022-08-08T15:08:54.650Z,28.07
2022-08-08T15:11:28.556Z,27.97
2022-08-08T15:14:14.394Z,27.83
2022-08-08T15:16:44.249Z,27.76
2022-08-08T15:19:15.853Z,27.70
2022-08-08T15:21:45.842Z,27.65
2022-08-08T15:24:21.597Z,27.52
2022-08-08T15:26:54.780Z,27.48
2022-08-08T15:29:30.009Z,27.43
2022-08-08T15:32:19.818Z,27.36
2022-08-08T15:34:49.348Z,27.28
2022-08-08T15:37:19.154Z,27.20
2022-08-08T15:39:58.244Z,27.12
2022-08-08T15:42:33.212Z,27.09
2022-08-08T15:45:04.917Z,27.05
2022-08-08T15:47:35.900Z,27.02
2022-08-08T15:50:12.358Z,26.98
2022-08-08T15:52:52.888Z,26.93
2022-08-08T15:55:26.151Z,26.89
2022-08-08T15:57:57.028Z,26.83
2022-08-08T16:00:28.378Z,26.81
2022-08-08T16:02:59.746Z,26.76
2022-08-08T16:05:35.245Z,26.76
2022-08-08T16:08:20.178Z,26.72
2022-08-08T16:13:20.913Z,26.68
2022-08-08T16:13:45.799Z,26.63
2022-08-08T16:16:17.890Z,26.61
2022-08-08T16:18:57.337Z,26.57
2022-08-08T16:21:30.515Z,26.54
2022-08-08T16:24:03.299Z,26.51
2022-08-08T16:26:38.697Z,26.51
2022-08-08T16:29:18.943Z,26.49
2022-08-08T16:32:13.016Z,26.46
2022-08-08T16:34:56.796Z,26.43
2022-08-08T16:37:33.485Z,26.40
2022-08-08T16:40:19.901Z,26.37
2022-08-08T16:42:54.278Z,26.34
2022-08-08T16:46:37.474Z,26.32
2022-08-08T16:48:20.765Z,26.30
2022-08-08T16:50:57.050Z,26.28
2022-08-08T16:55:23.723Z,26.25
2022-08-08T16:56:15.654Z,26.23
2022-08-08T16:58:49.707Z,26.20
2022-08-08T17:01:21.738Z,26.19
2022-08-08T17:03:59.309Z,26.16
2022-08-08T17:06:43.477Z,26.15
2022-08-08T17:09:23.069Z,26.11
2022-08-08T17:11:59.509Z,26.08
2022-08-08T17:14:34.526Z,26.03
2022-08-08T17:17:41.525Z,25.98
2022-08-08T17:20:03.870Z,25.96
2022-08-08T17:22:39.048Z,25.94
2022-08-08T17:25:16.761Z,25.92
2022-08-08T17:27:50.961Z,25.90
2022-08-08T17:30:29.124Z,25.87
2022-08-08T17:34:52.707Z,25.87
2022-08-08T17:36:12.477Z,25.83
2022-08-08T17:38:49.033Z,25.81
2022-08-08T17:41:30.639Z,25.79
2022-08-08T17:44:12.107Z,25.79
2022-08-08T17:46:46.995Z,25.74
2022-08-08T17:49:23.932Z,25.72
2022-08-08T17:51:54.604Z,25.70
2022-08-08T17:54:29.132Z,25.67
2022-08-08T17:56:57.222Z,25.62
2022-08-08T17:59:36.345Z,25.59
2022-08-08T18:02:28.659Z,25.56
2022-08-08T18:05:08.847Z,25.54
2022-08-08T18:08:02.064Z,25.51
2022-08-08T18:10:36.314Z,25.49
2022-08-08T18:13:07.538Z,25.44
2022-08-08T18:15:45.947Z,25.41
2022-08-08T18:18:39.506Z,25.37
2022-08-08T18:21:25.177Z,25.34
2022-08-08T18:24:17.640Z,25.30
2022-08-08T18:26:54.561Z,25.25
2022-08-08T18:29:33.480Z,25.21
2022-08-08T18:32:06.708Z,25.15
2022-08-08T18:34:35.464Z,25.12
2022-08-08T18:37:09.649Z,25.09
2022-08-08T18:39:41.394Z,25.06
2022-08-08T18:42:16.939Z,25.02
2022-08-08T18:44:59.952Z,25.00
2022-08-08T18:47:42.260Z,24.96
2022-08-08T18:50:17.956Z,24.91
2022-08-08T18:52:55.280Z,24.85
2022-08-08T18:55:28.735Z,24.81
2022-08-08T18:58:03.110Z,24.76
2022-08-08T19:00:40.049Z,24.73
2022-08-08T19:03:22.221Z,24.70
2022-08-08T19:06:00.229Z,24.65
2022-08-08T19:08:30.620Z,24.60
2022-08-08T19:11:02.245Z,24.55
2022-08-08T19:13:53.223Z,24.52
2022-08-08T19:16:28.603Z,24.48
2022-08-08T19:19:12.356Z,24.43
2022-08-08T19:21:49.159Z,24.38
2022-08-08T19:24:42.277Z,24.33
2022-08-08T19:27:56.604Z,24.31
2022-08-08T19:30:24.589Z,24.27
2022-08-08T19:33:02.398Z,24.18
2022-08-08T19:35:45.197Z,24.16
2022-08-08T19:38:22.141Z,24.14
2022-08-08T19:40:54.424Z,24.11
2022-08-08T19:43:28.564Z,24.04
2022-08-08T19:46:01.056Z,24.02
2022-08-08T19:48:35.684Z,23.98
2022-08-08T19:51:06.765Z,23.95
2022-08-08T19:53:51.159Z,23.93
2022-08-08T19:56:39.983Z,23.88
2022-08-08T19:59:12.767Z,23.78
2022-08-08T20:02:00.991Z,23.73
2022-08-08T20:04:39.675Z,23.65
2022-08-08T20:08:30.022Z,23.60
2022-08-08T20:10:00.904Z,23.55
2022-08-08T20:12:31.622Z,23.47
2022-08-08T20:15:21.813Z,23.44
2022-08-08T20:17:55.710Z,23.43
2022-08-08T20:20:34.141Z,23.39
2022-08-08T20:23:05.508Z,23.31
2022-08-08T20:25:45.411Z,23.24
2022-08-08T20:28:18.950Z,23.14
2022-08-08T20:30:56.036Z,23.13
2022-08-08T20:34:27.343Z,23.12
2022-08-08T20:36:22.978Z,23.07
2022-08-08T20:38:58.300Z,23.01
2022-08-08T20:41:34.128Z,22.94
2022-08-08T20:44:07.943Z,22.89
2022-08-08T20:46:41.749Z,22.85
2022-08-08T20:49:17.093Z,22.81
2022-08-08T20:51:45.790Z,22.75
2022-08-08T20:54:27.462Z,22.69
2022-08-08T20:57:16.931Z,22.61
2022-08-08T20:59:47.030Z,22.54
2022-08-08T21:02:25.399Z,22.47
2022-08-08T21:04:54.768Z,22.43
2022-08-08T21:07:47.482Z,22.39
2022-08-08T21:10:17.470Z,22.35
2022-08-08T21:12:54.381Z,22.32
2022-08-08T21:16:05.265Z,22.25
2022-08-08T21:18:15.748Z,22.19
2022-08-08T21:20:52.749Z,22.10
2022-08-08T21:23:58.949Z,22.02
2022-08-08T21:26:27.204Z,21.99
2022-08-08T21:29:00.666Z,21.95
2022-08-08T21:31:53.435Z,21.90
2022-08-08T21:34:20.935Z,21.81
2022-08-08T21:36:52.733Z,21.73
2022-08-08T21:39:23.915Z,21.66
2022-08-08T21:42:10.881Z,21.60
2022-08-08T21:44:58.814Z,21.56
2022-08-08T21:48:04.261Z,21.50
2022-08-08T21:50:16.875Z,21.47
2022-08-08T21:54:33.710Z,21.43
2022-08-08T21:56:20.275Z,21.36
2022-08-08T21:58:37.440Z,21.33
2022-08-08T22:01:06.021Z,21.26
2022-08-08T22:03:53.428Z,21.25
2022-08-08T22:06:31.737Z,21.20
2022-08-08T22:09:00.018Z,21.15
2022-08-08T22:11:59.525Z,21.06
2022-08-08T22:14:23.885Z,21.02
2022-08-08T22:17:00.956Z,20.97
2022-08-08T22:20:12.127Z,20.92
2022-08-08T22:22:19.007Z,20.89
2022-08-08T22:24:49.878Z,20.86
2022-08-08T22:27:22.803Z,20.87
2022-08-08T22:30:13.438Z,20.82
2022-08-08T22:32:53.298Z,20.72
2022-08-08T22:35:23.758Z,20.65
2022-08-08T22:37:54.366Z,20.59
2022-08-08T22:40:31.955Z,20.55
2022-08-08T22:42:59.791Z,20.50
2022-08-08T22:45:27.967Z,20.46
2022-08-08T22:47:56.655Z,20.46
2022-08-08T22:50:28.623Z,20.42
2022-08-08T22:54:29.222Z,20.37
2022-08-08T22:55:57.645Z,20.35
2022-08-08T22:58:28.855Z,20.32
2022-08-08T23:01:01.662Z,20.27
2022-08-08T23:03:53.307Z,20.27
2022-08-08T23:06:28.175Z,20.27
2022-08-08T23:09:00.425Z,20.23
2022-08-08T23:12:18.432Z,20.23
2022-08-08T23:14:21.099Z,20.19
2022-08-08T23:16:59.203Z,20.15
2022-08-08T23:19:32.925Z,20.14
2022-08-08T23:22:05.152Z,20.11
2022-08-08T23:24:41.189Z,20.07
2022-08-08T23:27:17.342Z,20.12
2022-08-08T23:30:04.128Z,20.09
2022-08-08T23:32:32.448Z,20.13
2022-08-08T23:35:01.096Z,20.13
2022-08-08T23:38:01.431Z,20.17
2022-08-08T23:40:28.986Z,20.26
2022-08-08T23:42:58.038Z,20.28
2022-08-08T23:49:03.337Z,20.31
2022-08-08T23:49:08.765Z,20.31
2022-08-08T23:51:12.710Z,20.32
2022-08-08T23:54:06.136Z,20.33
2022-08-08T23:56:34.105Z,20.33
2022-08-08T23:59:16.834Z,20.34
